sensor_id;sensor_type;location;lat;lon;timestamp;pressure;altitude;pressure_sealevel;temperature;humidity
59274;BME280;45044;41.572;24.730;2022-09-21T00:01:20;91404.06;;;7.94;100.00
59274;BME280;45044;41.572;24.730;2022-09-21T00:03:52;91404.41;;;7.65;100.00
59274;BME280;45044;41.572;24.730;2022-09-21T00:06:20;91400.44;;;7.75;100.00
59274;BME280;45044;41.572;24.730;2022-09-21T00:08:48;91394.59;;;7.86;100.00
59274;BME280;45044;41.572;24.730;2022-09-21T00:11:19;91397.03;;;7.71;100.00
59274;BME280;45044;41.572;24.730;2022-09-21T00:13:46;91395.41;;;7.63;100.00
59274;BME280;45044;41.572;24.730;2022-09-21T00:16:14;91403.06;;;7.75;100.00
59274;BME280;45044;41.572;24.730;2022-09-21T00:18:42;91395.91;;;7.99;100.00
59274;BME280;45044;41.572;24.730;2022-09-21T00:21:12;91393.19;;;7.92;100.00
59274;BME280;45044;41.572;24.730;2022-09-21T00:23:39;91399.31;;;8.03;100.00
59274;BME280;45044;41.572;24.730;2022-09-21T00:26:10;91393.72;;;8.05;100.00
59274;BME280;45044;41.572;24.730;2022-09-21T00:28:37;91402.34;;;7.78;100.00
59274;BME280;45044;41.572;24.730;2022-09-21T00:31:09;91399.94;;;7.93;100.00
59274;BME280;45044;41.572;24.730;2022-09-21T00:33:40;91402.75;;;8.08;100.00
59274;BME280;45044;41.572;24.730;2022-09-21T00:36:10;91409.41;;;8.01;100.00
59274;BME280;45044;41.572;24.730;2022-09-21T00:38:38;91399.44;;;7.84;100.00
59274;BME280;45044;41.572;24.730;2022-09-21T00:41:06;91395.06;;;7.91;100.00
59274;BME280;45044;41.572;24.730;2022-09-21T00:43:35;91394.06;;;8.03;100.00
59274;BME280;45044;41.572;24.730;2022-09-21T00:46:15;91395.91;;;7.99;100.00
59274;BME280;45044;41.572;24.730;2022-09-21T00:48:46;91396.31;;;8.01;100.00
59274;BME280;45044;41.572;24.730;2022-09-21T00:51:12;91400.75;;;7.70;100.00
59274;BME280;45044;41.572;24.730;2022-09-21T00:53:42;91398.91;;;7.47;100.00
59274;BME280;45044;41.572;24.730;2022-09-21T00:56:09;91392.34;;;7.57;100.00
59274;BME280;45044;41.572;24.730;2022-09-21T00:58:44;91396.00;;;7.52;100.00
59274;BME280;45044;41.572;24.730;2022-09-21T01:01:12;91381.63;;;7.66;100.00
59274;BME280;45044;41.572;24.730;2022-09-21T01:03:42;91385.00;;;7.66;100.00
59274;BME280;45044;41.572;24.730;2022-09-21T01:06:12;91404.72;;;7.60;100.00
59274;BME280;45044;41.572;24.730;2022-09-21T01:08:41;91390.88;;;7.87;100.00
59274;BME280;45044;41.572;24.730;2022-09-21T01:28:07;91374.28;;;8.06;100.00
59274;BME280;45044;41.572;24.730;2022-09-21T01:30:40;91368.75;;;7.81;100.00
59274;BME280;45044;41.572;24.730;2022-09-21T01:33:23;91367.94;;;7.76;100.00
59274;BME280;45044;41.572;24.730;2022-09-21T01:36:07;91364.31;;;7.85;100.00
59274;BME280;45044;41.572;24.730;2022-09-21T01:38:39;91363.53;;;7.84;100.00
59274;BME280;45044;41.572;24.730;2022-09-21T01:41:11;91369.03;;;7.75;100.00
59274;BME280;45044;41.572;24.730;2022-09-21T01:43:43;91367.72;;;7.89;100.00
59274;BME280;45044;41.572;24.730;2022-09-21T01:46:15;91363.59;;;7.88;100.00
59274;BME280;45044;41.572;24.730;2022-09-21T01:48:46;91349.25;;;7.78;100.00
59274;BME280;45044;41.572;24.730;2022-09-21T01:51:15;91359.75;;;7.82;100.00
59274;BME280;45044;41.572;24.730;2022-09-21T01:53:48;91359.97;;;7.69;100.00
59274;BME280;45044;41.572;24.730;2022-09-21T01:56:34;91363.50;;;7.53;100.00
59274;BME280;45044;41.572;24.730;2022-09-21T02:02:03;91368.63;;;7.73;100.00
59274;BME280;45044;41.572;24.730;2022-09-21T02:04:34;91366.63;;;7.90;100.00
59274;BME280;45044;41.572;24.730;2022-09-21T02:07:01;91366.09;;;8.08;100.00
59274;BME280;45044;41.572;24.730;2022-09-21T02:09:28;91354.03;;;7.99;100.00
59274;BME280;45044;41.572;24.730;2022-09-21T02:11:55;91357.78;;;8.02;100.00
59274;BME280;45044;41.572;24.730;2022-09-21T02:14:24;91354.50;;;8.09;100.00
59274;BME280;45044;41.572;24.730;2022-09-21T02:22:42;91367.53;;;8.01;100.00
59274;BME280;45044;41.572;24.730;2022-09-21T02:25:22;91368.13;;;7.91;100.00
59274;BME280;45044;41.572;24.730;2022-09-21T02:27:55;91363.63;;;7.91;100.00
59274;BME280;45044;41.572;24.730;2022-09-21T02:30:23;91349.91;;;7.71;100.00
59274;BME280;45044;41.572;24.730;2022-09-21T02:38:07;91367.53;;;7.47;100.00
59274;BME280;45044;41.572;24.730;2022-09-21T02:40:41;91361.06;;;7.64;100.00
59274;BME280;45044;41.572;24.730;2022-09-21T02:43:13;91366.38;;;7.72;100.00
59274;BME280;45044;41.572;24.730;2022-09-21T02:45:50;91366.84;;;7.77;100.00
59274;BME280;45044;41.572;24.730;2022-09-21T02:48:34;91370.50;;;7.73;100.00
59274;BME280;45044;41.572;24.730;2022-09-21T02:51:06;91340.06;;;7.61;100.00
59274;BME280;45044;41.572;24.730;2022-09-21T02:53:36;91368.13;;;7.91;100.00
59274;BME280;45044;41.572;24.730;2022-09-21T02:56:06;91355.16;;;8.02;100.00
59274;BME280;45044;41.572;24.730;2022-09-21T02:58:41;91356.28;;;8.01;100.00
59274;BME280;45044;41.572;24.730;2022-09-21T03:01:10;91360.22;;;8.18;100.00
59274;BME280;45044;41.572;24.730;2022-09-21T03:03:37;91362.34;;;8.09;100.00
59274;BME280;45044;41.572;24.730;2022-09-21T03:06:05;91366.03;;;8.04;100.00
59274;BME280;45044;41.572;24.730;2022-09-21T03:08:31;91355.25;;;7.78;100.00
59274;BME280;45044;41.572;24.730;2022-09-21T03:10:58;91353.81;;;7.54;100.00
59274;BME280;45044;41.572;24.730;2022-09-21T03:13:25;91352.75;;;7.59;100.00
59274;BME280;45044;41.572;24.730;2022-09-21T03:15:59;91363.03;;;7.75;100.00
59274;BME280;45044;41.572;24.730;2022-09-21T03:18:26;91371.63;;;7.45;100.00
59274;BME280;45044;41.572;24.730;2022-09-21T03:20:53;91382.47;;;7.47;100.00
59274;BME280;45044;41.572;24.730;2022-09-21T03:23:20;91376.59;;;7.81;100.00
59274;BME280;45044;41.572;24.730;2022-09-21T03:25:47;91385.84;;;8.01;100.00
59274;BME280;45044;41.572;24.730;2022-09-21T03:28:15;91380.19;;;7.99;100.00
59274;BME280;45044;41.572;24.730;2022-09-21T03:30:41;91380.97;;;8.03;100.00
59274;BME280;45044;41.572;24.730;2022-09-21T03:33:09;91375.78;;;8.07;100.00
59274;BME280;45044;41.572;24.730;2022-09-21T03:35:37;91382.50;;;8.05;100.00
59274;BME280;45044;41.572;24.730;2022-09-21T03:38:04;91396.78;;;8.11;100.00
59274;BME280;45044;41.572;24.730;2022-09-21T03:40:31;91371.81;;;8.17;100.00
59274;BME280;45044;41.572;24.730;2022-09-21T03:42:59;91388.06;;;8.30;100.00
59274;BME280;45044;41.572;24.730;2022-09-21T03:45:25;91395.72;;;8.46;100.00
59274;BME280;45044;41.572;24.730;2022-09-21T03:47:57;91385.91;;;8.39;100.00
59274;BME280;45044;41.572;24.730;2022-09-21T03:50:26;91390.06;;;8.44;100.00
59274;BME280;45044;41.572;24.730;2022-09-21T03:52:56;91369.03;;;8.37;100.00
59274;BME280;45044;41.572;24.730;2022-09-21T03:55:23;91358.13;;;8.31;100.00
59274;BME280;45044;41.572;24.730;2022-09-21T03:57:50;91344.53;;;8.22;100.00
59274;BME280;45044;41.572;24.730;2022-09-21T04:00:18;91367.91;;;8.03;100.00
59274;BME280;45044;41.572;24.730;2022-09-21T04:02:44;91374.03;;;7.84;100.00
59274;BME280;45044;41.572;24.730;2022-09-21T04:05:13;91385.16;;;7.77;100.00
59274;BME280;45044;41.572;24.730;2022-09-21T04:07:41;91367.47;;;7.71;100.00
59274;BME280;45044;41.572;24.730;2022-09-21T04:10:11;91379.56;;;7.52;100.00
59274;BME280;45044;41.572;24.730;2022-09-21T04:12:42;91373.72;;;7.62;100.00
59274;BME280;45044;41.572;24.730;2022-09-21T04:15:14;91378.75;;;7.75;100.00
59274;BME280;45044;41.572;24.730;2022-09-21T04:17:41;91391.16;;;7.82;100.00
59274;BME280;45044;41.572;24.730;2022-09-21T04:20:08;91396.50;;;7.89;100.00
59274;BME280;45044;41.572;24.730;2022-09-21T04:22:36;91388.75;;;7.96;100.00
59274;BME280;45044;41.572;24.730;2022-09-21T04:25:09;91367.63;;;7.82;100.00
59274;BME280;45044;41.572;24.730;2022-09-21T04:27:35;91382.50;;;8.05;100.00
59274;BME280;45044;41.572;24.730;2022-09-21T04:30:03;91391.25;;;7.89;100.00
59274;BME280;45044;41.572;24.730;2022-09-21T04:32:30;91398.91;;;7.47;100.00
59274;BME280;45044;41.572;24.730;2022-09-21T04:34:56;91401.38;;;7.63;100.00
59274;BME280;45044;41.572;24.730;2022-09-21T04:37:23;91395.78;;;7.61;100.00
59274;BME280;45044;41.572;24.730;2022-09-21T04:39:50;91404.50;;;7.73;100.00
59274;BME280;45044;41.572;24.730;2022-09-21T04:42:17;91393.34;;;7.76;100.00
59274;BME280;45044;41.572;24.730;2022-09-21T04:44:44;91386.94;;;8.00;100.00
59274;BME280;45044;41.572;24.730;2022-09-21T04:47:11;91382.19;;;8.10;100.00
59274;BME280;45044;41.572;24.730;2022-09-21T04:49:37;91375.78;;;8.07;100.00
59274;BME280;45044;41.572;24.730;2022-09-21T04:52:04;91375.66;;;7.96;100.00
59274;BME280;45044;41.572;24.730;2022-09-21T04:54:31;91390.88;;;7.60;100.00
59274;BME280;45044;41.572;24.730;2022-09-21T04:56:58;91393.78;;;7.54;100.00
59274;BME280;45044;41.572;24.730;2022-09-21T04:59:25;91382.78;;;7.69;100.00
59274;BME280;45044;41.572;24.730;2022-09-21T05:01:51;91389.78;;;7.88;100.00
59274;BME280;45044;41.572;24.730;2022-09-21T05:04:18;91387.66;;;7.97;100.00
59274;BME280;45044;41.572;24.730;2022-09-21T05:06:45;91389.47;;;7.93;100.00
59274;BME280;45044;41.572;24.730;2022-09-21T05:09:16;91389.25;;;8.06;100.00
59274;BME280;45044;41.572;24.730;2022-09-21T05:12:01;91390.28;;;7.97;100.00
59274;BME280;45044;41.572;24.730;2022-09-21T05:14:28;91400.66;;;8.21;100.00
59274;BME280;45044;41.572;24.730;2022-09-21T05:16:55;91383.94;;;8.33;100.00
59274;BME280;45044;41.572;24.730;2022-09-21T05:19:21;91392.63;;;8.37;100.00
59274;BME280;45044;41.572;24.730;2022-09-21T05:21:49;91393.50;;;8.48;100.00
59274;BME280;45044;41.572;24.730;2022-09-21T05:24:15;91398.13;;;8.59;100.00
59274;BME280;45044;41.572;24.730;2022-09-21T05:26:42;91383.41;;;8.50;100.00
59274;BME280;45044;41.572;24.730;2022-09-21T05:29:09;91388.44;;;8.63;100.00
59274;BME280;45044;41.572;24.730;2022-09-21T05:31:50;91380.22;;;8.65;100.00
59274;BME280;45044;41.572;24.730;2022-09-21T05:40:15;91379.28;;;8.84;100.00
59274;BME280;45044;41.572;24.730;2022-09-21T05:42:42;91377.72;;;8.76;100.00
59274;BME280;45044;41.572;24.730;2022-09-21T05:45:13;91370.69;;;8.18;100.00
59274;BME280;45044;41.572;24.730;2022-09-21T05:47:44;91380.06;;;8.19;100.00
59274;BME280;45044;41.572;24.730;2022-09-21T05:55:54;91365.13;;;8.54;100.00
59274;BME280;45044;41.572;24.730;2022-09-21T06:01:57;91379.31;;;8.53;100.00
59274;BME280;45044;41.572;24.730;2022-09-21T06:03:54;91368.44;;;8.51;100.00
59274;BME280;45044;41.572;24.730;2022-09-21T06:06:22;91370.63;;;8.80;100.00
59274;BME280;45044;41.572;24.730;2022-09-21T06:08:49;91373.22;;;8.80;100.00
59274;BME280;45044;41.572;24.730;2022-09-21T06:11:15;91362.19;;;8.97;100.00
59274;BME280;45044;41.572;24.730;2022-09-21T06:13:43;91371.53;;;8.98;100.00
59274;BME280;45044;41.572;24.730;2022-09-21T06:16:10;91364.75;;;8.90;100.00
59274;BME280;45044;41.572;24.730;2022-09-21T06:18:38;91365.50;;;8.94;100.00
59274;BME280;45044;41.572;24.730;2022-09-21T06:21:08;91365.44;;;8.87;100.00
59274;BME280;45044;41.572;24.730;2022-09-21T06:23:36;91360.59;;;8.89;100.00
59274;BME280;45044;41.572;24.730;2022-09-21T06:26:02;91366.28;;;8.98;100.00
59274;BME280;45044;41.572;24.730;2022-09-21T06:28:29;91364.13;;;9.08;100.00
59274;BME280;45044;41.572;24.730;2022-09-21T06:30:57;91365.13;;;8.92;100.00
59274;BME280;45044;41.572;24.730;2022-09-21T06:33:24;91359.69;;;9.12;100.00
59274;BME280;45044;41.572;24.730;2022-09-21T06:35:56;91356.03;;;9.28;100.00
59274;BME280;45044;41.572;24.730;2022-09-21T06:38:24;91362.69;;;9.18;100.00
59274;BME280;45044;41.572;24.730;2022-09-21T06:40:52;91355.22;;;9.20;100.00
59274;BME280;45044;41.572;24.730;2022-09-21T06:43:19;91367.97;;;9.21;100.00
59274;BME280;45044;41.572;24.730;2022-09-21T06:45:54;91364.97;;;9.16;100.00
59274;BME280;45044;41.572;24.730;2022-09-21T06:48:21;91367.09;;;9.52;100.00
59274;BME280;45044;41.572;24.730;2022-09-21T06:50:48;91362.34;;;9.72;100.00
59274;BME280;45044;41.572;24.730;2022-09-21T06:53:15;91363.81;;;9.69;100.00
59274;BME280;45044;41.572;24.730;2022-09-21T06:55:43;91369.84;;;9.74;100.00
59274;BME280;45044;41.572;24.730;2022-09-21T06:58:09;91354.53;;;10.90;100.00
59274;BME280;45044;41.572;24.730;2022-09-21T07:00:36;91366.63;;;11.32;100.00
59274;BME280;45044;41.572;24.730;2022-09-21T07:03:03;91361.66;;;12.93;100.00
59274;BME280;45044;41.572;24.730;2022-09-21T07:05:31;91366.16;;;13.99;88.19
59274;BME280;45044;41.572;24.730;2022-09-21T07:07:59;91363.16;;;14.32;81.68
59274;BME280;45044;41.572;24.730;2022-09-21T07:10:26;91358.31;;;16.74;61.91
59274;BME280;45044;41.572;24.730;2022-09-21T07:12:54;91358.97;;;15.97;65.67
59274;BME280;45044;41.572;24.730;2022-09-21T07:15:20;91364.97;;;15.29;67.26
59274;BME280;45044;41.572;24.730;2022-09-21T07:17:47;91362.69;;;16.23;65.21
59274;BME280;45044;41.572;24.730;2022-09-21T07:20:18;91338.88;;;15.99;60.05
59274;BME280;45044;41.572;24.730;2022-09-21T07:22:44;91357.81;;;16.42;55.87
59274;BME280;45044;41.572;24.730;2022-09-21T07:25:11;91353.16;;;15.81;56.61
59274;BME280;45044;41.572;24.730;2022-09-21T07:27:38;91361.38;;;14.88;56.53
59274;BME280;45044;41.572;24.730;2022-09-21T07:30:06;91360.88;;;15.24;54.19
59274;BME280;45044;41.572;24.730;2022-09-21T07:32:33;91362.03;;;13.94;63.19
59274;BME280;45044;41.572;24.730;2022-09-21T07:35:00;91358.09;;;13.71;67.58
59274;BME280;45044;41.572;24.730;2022-09-21T07:37:27;91361.81;;;13.77;66.85
59274;BME280;45044;41.572;24.730;2022-09-21T07:39:54;91365.56;;;13.80;67.38
59274;BME280;45044;41.572;24.730;2022-09-21T07:42:21;91362.81;;;13.91;67.70
59274;BME280;45044;41.572;24.730;2022-09-21T07:44:49;91364.06;;;13.79;66.72
59274;BME280;45044;41.572;24.730;2022-09-21T07:47:17;91355.03;;;13.76;66.76
59274;BME280;45044;41.572;24.730;2022-09-21T07:49:44;91352.47;;;14.08;59.86
59274;BME280;45044;41.572;24.730;2022-09-21T07:52:12;91344.72;;;15.42;59.44
59274;BME280;45044;41.572;24.730;2022-09-21T07:54:40;91345.31;;;14.71;61.97
59274;BME280;45044;41.572;24.730;2022-09-21T07:57:07;91345.63;;;15.80;59.65
59274;BME280;45044;41.572;24.730;2022-09-21T07:59:52;91347.25;;;16.59;52.50
59274;BME280;45044;41.572;24.730;2022-09-21T08:02:19;91335.72;;;16.08;52.00
59274;BME280;45044;41.572;24.730;2022-09-21T08:04:46;91337.53;;;16.11;55.25
59274;BME280;45044;41.572;24.730;2022-09-21T08:07:12;91340.59;;;16.50;52.79
59274;BME280;45044;41.572;24.730;2022-09-21T08:09:39;91336.00;;;15.90;49.10
59274;BME280;45044;41.572;24.730;2022-09-21T08:12:07;91332.16;;;16.15;48.61
59274;BME280;45044;41.572;24.730;2022-09-21T08:14:34;91334.34;;;14.41;53.60
59274;BME280;45044;41.572;24.730;2022-09-21T08:17:01;91322.50;;;15.60;49.65
59274;BME280;45044;41.572;24.730;2022-09-21T08:19:28;91330.72;;;15.90;49.36
59274;BME280;45044;41.572;24.730;2022-09-21T08:21:55;91333.31;;;15.21;52.30
59274;BME280;45044;41.572;24.730;2022-09-21T08:24:23;91332.44;;;16.00;52.76
59274;BME280;45044;41.572;24.730;2022-09-21T08:26:53;91329.59;;;16.52;51.56
59274;BME280;45044;41.572;24.730;2022-09-21T08:29:22;91332.88;;;15.95;53.50
59274;BME280;45044;41.572;24.730;2022-09-21T08:31:50;91331.94;;;15.37;54.12
59274;BME280;45044;41.572;24.730;2022-09-21T08:34:18;91333.56;;;15.03;58.60
59274;BME280;45044;41.572;24.730;2022-09-21T08:36:45;91329.16;;;15.68;55.45
59274;BME280;45044;41.572;24.730;2022-09-21T08:39:11;91342.03;;;16.14;52.64
59274;BME280;45044;41.572;24.730;2022-09-21T08:44:43;91325.22;;;15.05;58.42
59274;BME280;45044;41.572;24.730;2022-09-21T08:47:18;91335.28;;;15.17;57.27
59274;BME280;45044;41.572;24.730;2022-09-21T08:49:56;91317.88;;;15.16;59.73
59274;BME280;45044;41.572;24.730;2022-09-21T08:52:25;91319.59;;;15.51;55.97
59274;BME280;45044;41.572;24.730;2022-09-21T08:55:21;91322.25;;;14.09;58.94
59274;BME280;45044;41.572;24.730;2022-09-21T08:57:50;91317.97;;;13.84;59.41
59274;BME280;45044;41.572;24.730;2022-09-21T09:00:17;91324.88;;;13.74;61.66
59274;BME280;45044;41.572;24.730;2022-09-21T09:05:40;91326.84;;;14.05;62.00
59274;BME280;45044;41.572;24.730;2022-09-21T09:16:48;91309.72;;;14.48;64.20
59274;BME280;45044;41.572;24.730;2022-09-21T09:19:26;91308.41;;;14.60;61.15
59274;BME280;45044;41.572;24.730;2022-09-21T09:21:55;91290.97;;;14.35;60.44
59274;BME280;45044;41.572;24.730;2022-09-21T09:24:39;91310.59;;;13.68;67.07
59274;BME280;45044;41.572;24.730;2022-09-21T09:27:12;91306.56;;;13.02;66.08
59274;BME280;45044;41.572;24.730;2022-09-21T09:29:45;91303.03;;;13.20;67.06
59274;BME280;45044;41.572;24.730;2022-09-21T09:32:17;91300.28;;;13.35;66.23
59274;BME280;45044;41.572;24.730;2022-09-21T09:34:56;91296.81;;;12.96;66.85
59274;BME280;45044;41.572;24.730;2022-09-21T09:37:31;91294.25;;;12.85;67.22
59274;BME280;45044;41.572;24.730;2022-09-21T09:39:59;91293.13;;;12.82;69.27
59274;BME280;45044;41.572;24.730;2022-09-21T09:45:41;91298.81;;;12.80;72.38
59274;BME280;45044;41.572;24.730;2022-09-21T09:50:49;91289.56;;;12.50;78.37
59274;BME280;45044;41.572;24.730;2022-09-21T09:53:17;91275.19;;;12.58;71.20
59274;BME280;45044;41.572;24.730;2022-09-21T09:55:47;91287.28;;;12.52;69.38
59274;BME280;45044;41.572;24.730;2022-09-21T10:00:50;91286.13;;;12.61;72.32
59274;BME280;45044;41.572;24.730;2022-09-21T10:03:19;91281.75;;;12.36;78.18
59274;BME280;45044;41.572;24.730;2022-09-21T10:05:47;91286.53;;;12.55;74.32
59274;BME280;45044;41.572;24.730;2022-09-21T10:11:02;91294.09;;;12.46;77.99
59274;BME280;45044;41.572;24.730;2022-09-21T10:13:35;91286.53;;;12.55;79.35
59274;BME280;45044;41.572;24.730;2022-09-21T10:18:51;91289.66;;;12.36;78.71
59274;BME280;45044;41.572;24.730;2022-09-21T10:21:21;91294.91;;;12.36;82.63
59274;BME280;45044;41.572;24.730;2022-09-21T10:23:56;91294.91;;;12.36;83.09
59274;BME280;45044;41.572;24.730;2022-09-21T10:26:31;91278.00;;;12.29;77.44
59274;BME280;45044;41.572;24.730;2022-09-21T10:32:01;91289.56;;;12.50;87.34
59274;BME280;45044;41.572;24.730;2022-09-21T10:34:30;91291.75;;;12.63;87.48
59274;BME280;45044;41.572;24.730;2022-09-21T10:36:59;91286.50;;;12.59;89.43
59274;BME280;45044;41.572;24.730;2022-09-21T10:39:29;91273.38;;;12.48;92.50
59274;BME280;45044;41.572;24.730;2022-09-21T10:42:11;91284.31;;;12.47;89.25
59274;BME280;45044;41.572;24.730;2022-09-21T10:49:45;91290.41;;;12.32;80.03
59274;BME280;45044;41.572;24.730;2022-09-21T10:52:12;91284.84;;;12.08;88.08
59274;BME280;45044;41.572;24.730;2022-09-21T10:54:40;91277.31;;;12.10;89.09
59274;BME280;45044;41.572;24.730;2022-09-21T10:57:13;91284.13;;;11.93;91.14
59274;BME280;45044;41.572;24.730;2022-09-21T10:59:41;91285.59;;;12.02;85.70
59274;BME280;45044;41.572;24.730;2022-09-21T11:05:13;91286.03;;;11.85;89.46
59274;BME280;45044;41.572;24.730;2022-09-21T11:10:20;91292.00;;;12.15;91.20
59274;BME280;45044;41.572;24.730;2022-09-21T11:16:02;91280.03;;;11.78;100.00
59274;BME280;45044;41.572;24.730;2022-09-21T11:26:29;91287.47;;;12.19;100.00
59274;BME280;45044;41.572;24.730;2022-09-21T11:29:17;91252.13;;;11.98;100.00
59274;BME280;45044;41.572;24.730;2022-09-21T11:38:03;91282.91;;;12.27;100.00
59274;BME280;45044;41.572;24.730;2022-09-21T11:43:19;91282.25;;;11.94;100.00
59274;BME280;45044;41.572;24.730;2022-09-21T11:56:48;91292.16;;;11.35;100.00
59274;BME280;45044;41.572;24.730;2022-09-21T12:02:03;91280.09;;;11.59;100.00
59274;BME280;45044;41.572;24.730;2022-09-21T12:04:56;91287.50;;;12.12;100.00
59274;BME280;45044;41.572;24.730;2022-09-21T12:07:55;91272.19;;;12.56;100.00
59274;BME280;45044;41.572;24.730;2022-09-21T12:11:00;91273.94;;;13.27;100.00
59274;BME280;45044;41.572;24.730;2022-09-21T12:13:38;91277.28;;;13.77;100.00
59274;BME280;45044;41.572;24.730;2022-09-21T12:19:06;91267.19;;;13.26;100.00
59274;BME280;45044;41.572;24.730;2022-09-21T12:21:41;91257.91;;;12.54;100.00
59274;BME280;45044;41.572;24.730;2022-09-21T12:24:14;91262.56;;;12.31;100.00
59274;BME280;45044;41.572;24.730;2022-09-21T12:26:48;91275.47;;;11.93;100.00
59274;BME280;45044;41.572;24.730;2022-09-21T12:29:29;91273.25;;;11.84;100.00
59274;BME280;45044;41.572;24.730;2022-09-21T12:32:07;91270.25;;;11.78;100.00
59274;BME280;45044;41.572;24.730;2022-09-21T12:34:42;91271.84;;;11.50;100.00
59274;BME280;45044;41.572;24.730;2022-09-21T12:44:53;91285.06;;;11.13;100.00
59274;BME280;45044;41.572;24.730;2022-09-21T12:52:52;91308.72;;;10.84;100.00
59274;BME280;45044;41.572;24.730;2022-09-21T12:55:37;91298.09;;;10.40;100.00
59274;BME280;45044;41.572;24.730;2022-09-21T12:58:18;91306.13;;;9.80;100.00
59274;BME280;45044;41.572;24.730;2022-09-21T13:03:44;91317.84;;;9.98;100.00
59274;BME280;45044;41.572;24.730;2022-09-21T13:08:50;91326.47;;;10.02;100.00
59274;BME280;45044;41.572;24.730;2022-09-21T13:11:19;91344.38;;;9.81;100.00
59274;BME280;45044;41.572;24.730;2022-09-21T13:13:50;91339.81;;;9.67;100.00
59274;BME280;45044;41.572;24.730;2022-09-21T13:16:30;91348.69;;;9.48;100.00
59274;BME280;45044;41.572;24.730;2022-09-21T13:21:28;91370.00;;;8.94;100.00
59274;BME280;45044;41.572;24.730;2022-09-21T13:23:57;91368.31;;;8.74;100.00
59274;BME280;45044;41.572;24.730;2022-09-21T13:42:51;91353.63;;;9.04;100.00
59274;BME280;45044;41.572;24.730;2022-09-21T13:47:49;91339.56;;;9.31;100.00
59274;BME280;45044;41.572;24.730;2022-09-21T13:50:29;91344.91;;;9.42;100.00
59274;BME280;45044;41.572;24.730;2022-09-21T13:53:03;91351.69;;;9.46;100.00
59274;BME280;45044;41.572;24.730;2022-09-21T13:55:38;91350.13;;;9.38;100.00
59274;BME280;45044;41.572;24.730;2022-09-21T13:58:19;91354.25;;;9.36;100.00
59274;BME280;45044;41.572;24.730;2022-09-21T14:00:52;91358.28;;;9.26;100.00
59274;BME280;45044;41.572;24.730;2022-09-21T14:03:24;91359.34;;;8.76;100.00
59274;BME280;45044;41.572;24.730;2022-09-21T14:06:00;91359.41;;;8.79;100.00
59274;BME280;45044;41.572;24.730;2022-09-21T14:08:36;91343.25;;;8.73;100.00
59274;BME280;45044;41.572;24.730;2022-09-21T14:11:51;91351.69;;;8.56;100.00
59274;BME280;45044;41.572;24.730;2022-09-21T14:27:29;91341.28;;;7.98;100.00
59274;BME280;45044;41.572;24.730;2022-09-21T14:32:44;91344.19;;;7.62;100.00
59274;BME280;45044;41.572;24.730;2022-09-21T14:35:16;91338.53;;;7.60;100.00
59274;BME280;45044;41.572;24.730;2022-09-21T14:37:50;91334.28;;;7.48;100.00
59274;BME280;45044;41.572;24.730;2022-09-21T14:40:22;91348.41;;;7.70;100.00
59274;BME280;45044;41.572;24.730;2022-09-21T14:42:52;91356.44;;;7.54;100.00
59274;BME280;45044;41.572;24.730;2022-09-21T15:02:33;91359.13;;;7.88;100.00
59274;BME280;45044;41.572;24.730;2022-09-21T15:10:34;91376.69;;;7.61;100.00
59274;BME280;45044;41.572;24.730;2022-09-21T15:18:47;91375.28;;;7.67;100.00
59274;BME280;45044;41.572;24.730;2022-09-21T15:21:29;91365.53;;;7.64;100.00
59274;BME280;45044;41.572;24.730;2022-09-21T15:23:58;91374.59;;;7.70;100.00
59274;BME280;45044;41.572;24.730;2022-09-21T15:26:29;91369.22;;;7.59;100.00
59274;BME280;45044;41.572;24.730;2022-09-21T15:29:02;91371.25;;;7.46;100.00
59274;BME280;45044;41.572;24.730;2022-09-21T15:31:40;91373.16;;;7.49;100.00
59274;BME280;45044;41.572;24.730;2022-09-21T15:34:08;91377.69;;;7.52;100.00
59274;BME280;45044;41.572;24.730;2022-09-21T15:36:38;91383.06;;;7.63;100.00
59274;BME280;45044;41.572;24.730;2022-09-21T15:39:06;91377.69;;;7.52;100.00
59274;BME280;45044;41.572;24.730;2022-09-21T15:41:40;91388.06;;;7.72;100.00
59274;BME280;45044;41.572;24.730;2022-09-21T15:44:18;91378.28;;;7.69;100.00
59274;BME280;45044;41.572;24.730;2022-09-21T15:46:52;91374.78;;;7.58;100.00
59274;BME280;45044;41.572;24.730;2022-09-21T15:49:20;91382.03;;;7.68;100.00
59274;BME280;45044;41.572;24.730;2022-09-21T15:52:00;91385.53;;;7.52;100.00
59274;BME280;45044;41.572;24.730;2022-09-21T15:54:39;91350.38;;;7.50;100.00
59274;BME280;45044;41.572;24.730;2022-09-21T15:57:33;91380.91;;;7.69;100.00
59274;BME280;45044;41.572;24.730;2022-09-21T16:05:51;91386.63;;;7.24;100.00
59274;BME280;45044;41.572;24.730;2022-09-21T16:13:35;91380.00;;;7.30;100.00
59274;BME280;45044;41.572;24.730;2022-09-21T16:16:21;91382.31;;;7.36;100.00
59274;BME280;45044;41.572;24.730;2022-09-21T16:18:53;91378.47;;;7.29;100.00
59274;BME280;45044;41.572;24.730;2022-09-21T16:23:56;91368.44;;;7.31;100.00
59274;BME280;45044;41.572;24.730;2022-09-21T16:26:25;91366.31;;;7.14;100.00
59274;BME280;45044;41.572;24.730;2022-09-21T16:29:15;91358.38;;;7.34;100.00
59274;BME280;45044;41.572;24.730;2022-09-21T16:31:42;91364.16;;;7.19;100.00
59274;BME280;45044;41.572;24.730;2022-09-21T16:34:29;91367.09;;;7.18;100.00
59274;BME280;45044;41.572;24.730;2022-09-21T16:39:56;91367.91;;;7.22;100.00
59274;BME280;45044;41.572;24.730;2022-09-21T16:42:26;91365.75;;;7.28;100.00
59274;BME280;45044;41.572;24.730;2022-09-21T16:44:58;91371.81;;;7.32;100.00
59274;BME280;45044;41.572;24.730;2022-09-21T16:47:26;91369.81;;;7.25;100.00
59274;BME280;45044;41.572;24.730;2022-09-21T16:49:56;91365.81;;;7.31;100.00
59274;BME280;45044;41.572;24.730;2022-09-21T16:52:27;91359.34;;;7.25;100.00
59274;BME280;45044;41.572;24.730;2022-09-21T16:54:55;91368.97;;;7.17;100.00